Time;durP1;ratioP1;P1;durP2;ratioP2;P2;SDS_P1;SDS_P2;PMS_P1;PMS_P2;Temp;Humidity;BMP_temperature;BMP_pressure;BME280_temperature;BME280_humidity;BME280_pressure;Samples;Min_cycle;Max_cycle;Signal;HPM_P1;HPM_P2
2022/05/30 00:00:46;;;;;;;8.02;3.55;;;7.60;96.50;;;;;;6121889;23;20030;-80
2022/05/30 00:03:13;;;;;;;12.00;3.65;;;7.60;96.40;;;;;;6122402;23;20455;-80
2022/05/30 00:05:48;;;;;;;10.90;3.95;;;7.60;96.50;;;;;;6122290;23;20029;-80
2022/05/30 00:08:17;;;;;;;14.38;3.63;;;7.60;96.70;;;;;;6121822;23;20046;-81
2022/05/30 00:10:44;;;;;;;8.57;3.08;;;7.60;96.80;;;;;;6122314;23;20367;-79
2022/05/30 00:13:12;;;;;;;7.43;3.30;;;7.60;96.80;;;;;;6121991;23;20492;-79
2022/05/30 00:15:39;;;;;;;13.80;3.00;;;7.60;96.70;;;;;;6121946;23;20027;-80
2022/05/30 00:18:09;;;;;;;11.05;3.20;;;7.50;96.30;;;;;;6121781;23;20117;-79
2022/05/30 00:20:36;;;;;;;12.00;2.97;;;7.50;96.30;;;;;;6121989;23;20030;-80
2022/05/30 00:23:04;;;;;;;7.68;3.13;;;7.50;96.40;;;;;;6121678;23;20065;-80
2022/05/30 00:25:32;;;;;;;11.52;3.22;;;7.50;96.60;;;;;;6122301;23;20544;-80
2022/05/30 00:27:59;;;;;;;13.15;3.47;;;7.50;96.60;;;;;;6121976;23;20303;-80
2022/05/30 00:30:26;;;;;;;13.07;3.40;;;7.50;96.50;;;;;;6121301;23;20040;-79
2022/05/30 00:32:52;;;;;;;9.65;3.20;;;7.50;96.30;;;;;;6121867;23;20036;-80
2022/05/30 00:35:19;;;;;;;7.63;3.03;;;7.40;96.30;;;;;;6122504;23;20027;-80
2022/05/30 00:37:46;;;;;;;8.65;3.45;;;7.40;96.40;;;;;;6121994;23;20105;-80
2022/05/30 00:40:12;;;;;;;12.90;3.10;;;7.50;96.60;;;;;;6122360;23;20114;-79
2022/05/30 00:42:39;;;;;;;12.88;3.47;;;7.50;96.60;;;;;;6096244;23;20045;-79
2022/05/30 00:45:07;;;;;;;7.45;3.53;;;7.50;96.50;;;;;;6120880;23;20027;-80
2022/05/30 00:47:33;;;;;;;10.93;3.30;;;7.50;96.70;;;;;;6122541;23;20025;-80
2022/05/30 00:50:00;;;;;;;11.40;2.92;;;7.60;96.60;;;;;;6120027;23;20027;-80
2022/05/30 00:52:34;;;;;;;10.10;3.17;;;7.50;96.50;;;;;;6121728;23;20069;-80
2022/05/30 00:55:17;;;;;;;9.32;3.17;;;7.50;96.50;;;;;;6120955;23;20095;-80
2022/05/30 00:57:45;;;;;;;12.90;3.42;;;7.50;96.50;;;;;;6122855;23;20050;-80
2022/05/30 01:00:17;;;;;;;7.00;2.88;;;7.50;96.60;;;;;;6121204;23;20348;-80
2022/05/30 01:02:44;;;;;;;15.02;3.63;;;7.50;96.50;;;;;;6121939;23;20057;-80
2022/05/30 01:08:02;;;;;;;10.70;3.53;;;7.60;96.50;;;;;;6121580;23;20048;-80
2022/05/30 01:10:28;;;;;;;11.85;3.38;;;7.60;96.70;;;;;;6121465;23;20393;-80
2022/05/30 01:12:57;;;;;;;9.65;3.40;;;7.60;96.80;;;;;;6120519;23;20034;-80
2022/05/30 01:15:29;;;;;;;8.70;3.42;;;7.70;96.90;;;;;;6122457;23;20130;-80
2022/05/30 01:18:03;;;;;;;7.05;2.80;;;7.70;96.80;;;;;;6121549;23;20022;-80
2022/05/30 01:20:49;;;;;;;8.50;3.40;;;7.70;96.90;;;;;;6144491;23;20541;-79
2022/05/30 01:23:39;;;;;;;16.90;3.53;;;7.70;97.00;;;;;;6122272;23;20031;-80
2022/05/30 01:26:23;;;;;;;8.80;2.72;;;7.80;97.00;;;;;;6120958;23;20033;-80
2022/05/30 01:29:12;;;;;;;9.50;2.85;;;7.70;96.80;;;;;;6121488;23;20033;-80
2022/05/30 01:31:39;;;;;;;13.52;2.90;;;7.70;96.70;;;;;;6122798;23;20029;-80
2022/05/30 01:34:06;;;;;;;9.23;2.65;;;7.70;96.80;;;;;;6121305;23;20510;-80
2022/05/30 01:36:33;;;;;;;6.88;2.03;;;7.70;96.70;;;;;;6122116;23;20486;-79
2022/05/30 01:39:01;;;;;;;9.50;2.40;;;7.70;96.40;;;;;;6125556;23;20032;-80
2022/05/30 01:41:28;;;;;;;7.20;2.22;;;7.70;96.20;;;;;;6121905;23;20037;-80
2022/05/30 01:43:55;;;;;;;9.95;2.45;;;7.70;96.00;;;;;;6121070;23;20562;-79
2022/05/30 01:46:23;;;;;;;6.60;2.25;;;7.70;96.00;;;;;;6119489;23;20022;-80
2022/05/30 01:48:51;;;;;;;9.88;2.55;;;7.80;96.10;;;;;;6121591;23;20097;-79
2022/05/30 01:51:19;;;;;;;8.68;2.30;;;7.80;96.20;;;;;;6127580;23;20026;-80
2022/05/30 01:53:46;;;;;;;8.07;2.88;;;7.80;96.20;;;;;;6121036;23;20061;-80
2022/05/30 01:56:17;;;;;;;10.50;2.92;;;7.70;95.80;;;;;;6121939;23;20806;-79
2022/05/30 01:58:44;;;;;;;6.65;3.10;;;7.70;95.80;;;;;;6119530;23;20504;-80
2022/05/30 02:01:26;;;;;;;8.95;3.03;;;7.70;95.80;;;;;;6121722;23;20451;-80
2022/05/30 02:03:54;;;;;;;8.93;3.13;;;7.70;95.90;;;;;;6120927;23;20066;-79
2022/05/30 02:06:23;;;;;;;8.57;3.13;;;7.60;95.70;;;;;;6122798;23;20101;-80
2022/05/30 02:08:50;;;;;;;8.73;2.75;;;7.60;95.90;;;;;;6122507;23;20031;-80
2022/05/30 02:11:18;;;;;;;11.13;3.00;;;7.60;95.80;;;;;;6122464;23;20030;-80
2022/05/30 02:13:45;;;;;;;6.15;2.70;;;7.50;95.60;;;;;;6121597;23;20378;-80
2022/05/30 02:18:59;;;;;;;7.60;2.65;;;7.40;95.30;;;;;;6124955;23;20101;-80
2022/05/30 02:21:26;;;;;;;10.48;2.83;;;7.30;95.10;;;;;;6124726;23;20025;-80
2022/05/30 02:23:53;;;;;;;8.32;2.95;;;7.20;95.00;;;;;;6121682;23;20807;-79
2022/05/30 02:26:19;;;;;;;6.47;2.72;;;7.10;95.10;;;;;;6123066;23;20032;-79
2022/05/30 02:28:48;;;;;;;6.57;2.42;;;7.00;95.10;;;;;;6123055;23;20023;-79
2022/05/30 02:31:14;;;;;;;8.63;3.10;;;7.00;95.30;;;;;;6122573;23;20026;-79
2022/05/30 02:36:39;;;;;;;6.43;2.85;;;6.80;95.40;;;;;;6122510;23;20533;-79
2022/05/30 02:39:11;;;;;;;6.45;2.80;;;6.80;95.40;;;;;;6122061;23;20030;-79
2022/05/30 02:41:38;;;;;;;8.70;3.13;;;6.70;95.50;;;;;;6122735;23;20032;-80
2022/05/30 02:44:05;;;;;;;8.98;3.10;;;6.60;95.50;;;;;;6122412;23;20073;-80
2022/05/30 02:46:32;;;;;;;9.35;2.85;;;6.60;95.60;;;;;;6122685;23;20019;-79
2022/05/30 02:48:59;;;;;;;8.73;2.95;;;6.50;95.70;;;;;;6121736;23;20097;-80
2022/05/30 02:51:26;;;;;;;6.60;3.00;;;6.50;95.70;;;;;;6122757;23;20022;-79
2022/05/30 02:53:53;;;;;;;14.40;3.95;;;6.40;95.90;;;;;;6122189;23;20034;-79
2022/05/30 02:56:19;;;;;;;8.77;3.45;;;6.40;96.20;;;;;;6122396;23;20018;-79
2022/05/30 02:58:47;;;;;;;12.40;3.38;;;6.40;96.40;;;;;;6121341;23;20458;-79
2022/05/30 03:01:14;;;;;;;9.40;3.50;;;6.30;96.40;;;;;;6121955;23;20037;-80
2022/05/30 03:03:41;;;;;;;7.90;3.17;;;6.20;96.20;;;;;;6122197;23;20490;-79
2022/05/30 03:06:08;;;;;;;7.53;3.40;;;6.20;96.30;;;;;;6121933;23;20861;-79
2022/05/30 03:08:35;;;;;;;12.40;3.38;;;6.10;96.40;;;;;;6122914;23;20026;-79
2022/05/30 03:11:02;;;;;;;14.70;3.40;;;6.10;96.60;;;;;;6121595;23;20032;-79
2022/05/30 03:13:29;;;;;;;10.30;3.55;;;6.10;96.80;;;;;;6122626;23;20041;-80
2022/05/30 03:15:58;;;;;;;8.63;3.10;;;6.10;96.70;;;;;;6122602;23;20030;-80
2022/05/30 03:18:25;;;;;;;9.98;3.22;;;6.00;96.70;;;;;;6121635;23;20026;-79
2022/05/30 03:20:52;;;;;;;8.00;3.28;;;6.00;96.70;;;;;;6121871;23;20031;-79
2022/05/30 03:23:19;;;;;;;8.27;3.13;;;6.00;96.80;;;;;;6121848;23;20472;-79
2022/05/30 03:25:45;;;;;;;9.30;3.15;;;5.90;96.80;;;;;;6121824;23;20027;-79
2022/05/30 03:28:12;;;;;;;8.30;3.38;;;5.90;96.80;;;;;;6122226;23;20093;-79
2022/05/30 03:30:39;;;;;;;6.90;3.42;;;5.80;96.70;;;;;;6122793;23;20032;-79
2022/05/30 03:33:07;;;;;;;8.80;3.20;;;5.70;96.70;;;;;;6121031;23;20034;-80
2022/05/30 03:35:35;;;;;;;8.20;3.03;;;5.70;96.60;;;;;;6122649;23;20561;-80
2022/05/30 03:38:03;;;;;;;6.43;3.05;;;5.60;96.60;;;;;;6121718;23;20048;-79
2022/05/30 03:40:29;;;;;;;4.90;2.72;;;5.60;96.60;;;;;;6123345;23;20794;-79
2022/05/30 03:42:56;;;;;;;5.80;2.70;;;5.50;96.70;;;;;;6122923;23;20018;-79
2022/05/30 03:45:23;;;;;;;5.25;2.67;;;5.50;96.60;;;;;;6122417;23;20037;-79
2022/05/30 03:47:50;;;;;;;10.43;3.10;;;5.50;96.70;;;;;;6121767;23;20037;-80
2022/05/30 03:50:23;;;;;;;12.93;3.85;;;5.40;96.80;;;;;;6121747;23;20026;-79
2022/05/30 03:53:04;;;;;;;10.52;3.60;;;5.50;97.00;;;;;;6121616;23;20042;-79
2022/05/30 03:55:39;;;;;;;7.38;3.22;;;5.50;97.40;;;;;;6122449;23;20033;-79
2022/05/30 03:58:07;;;;;;;8.48;3.13;;;5.50;97.40;;;;;;6122932;23;20484;-80
2022/05/30 04:00:35;;;;;;;6.90;2.90;;;5.40;97.40;;;;;;6121994;23;20026;-79
2022/05/30 04:03:03;;;;;;;8.52;2.95;;;5.40;97.40;;;;;;6121865;23;20035;-79
2022/05/30 04:05:29;;;;;;;9.15;3.10;;;5.40;97.30;;;;;;6122395;23;20065;-79
2022/05/30 04:07:57;;;;;;;5.90;3.00;;;5.30;97.30;;;;;;6121207;23;20098;-79
2022/05/30 04:10:25;;;;;;;8.98;3.28;;;5.30;97.20;;;;;;6122196;23;20434;-78
2022/05/30 04:13:06;;;;;;;6.75;3.38;;;5.40;97.60;;;;;;6122015;23;20054;-80
2022/05/30 04:15:33;;;;;;;10.60;3.40;;;5.30;97.30;;;;;;6122077;23;20033;-79
2022/05/30 04:18:00;;;;;;;6.63;2.80;;;5.20;97.30;;;;;;6121149;23;20030;-79
2022/05/30 04:20:27;;;;;;;4.75;2.65;;;5.20;97.00;;;;;;6120883;23;20037;-79
2022/05/30 04:22:54;;;;;;;4.95;2.90;;;5.10;97.00;;;;;;6121348;23;20054;-79
2022/05/30 04:25:21;;;;;;;7.53;3.10;;;5.20;97.30;;;;;;6122170;23;20031;-79
2022/05/30 04:27:48;;;;;;;8.02;3.17;;;5.20;97.30;;;;;;6121819;23;20105;-80
2022/05/30 04:30:14;;;;;;;6.30;2.95;;;5.10;97.30;;;;;;6122690;23;20097;-79
2022/05/30 04:32:41;;;;;;;7.47;3.30;;;5.20;97.30;;;;;;6122152;23;20134;-79
2022/05/30 04:35:09;;;;;;;8.98;3.22;;;5.10;97.40;;;;;;6120567;23;20025;-80
2022/05/30 04:37:36;;;;;;;9.95;3.53;;;5.10;97.30;;;;;;6122140;23;20054;-79
2022/05/30 04:40:04;;;;;;;9.48;3.40;;;5.10;97.40;;;;;;6119745;23;20409;-80
2022/05/30 04:42:30;;;;;;;7.68;3.38;;;5.20;97.60;;;;;;6122062;23;20034;-79
2022/05/30 04:44:57;;;;;;;12.27;4.18;;;5.10;97.70;;;;;;6121643;23;20026;-80
2022/05/30 04:47:24;;;;;;;13.18;3.78;;;5.10;97.60;;;;;;6122273;23;20722;-79
2022/05/30 04:49:51;;;;;;;7.50;3.90;;;5.20;98.00;;;;;;6121813;23;20454;-79
2022/05/30 04:52:18;;;;;;;10.63;4.18;;;5.20;98.10;;;;;;6122289;23;20511;-79
2022/05/30 04:54:45;;;;;;;11.93;3.88;;;5.30;98.20;;;;;;6120439;23;20023;-80
2022/05/30 04:57:12;;;;;;;9.55;3.78;;;5.30;98.30;;;;;;6122031;23;20037;-79
2022/05/30 04:59:40;;;;;;;13.65;4.10;;;5.30;98.50;;;;;;6121772;23;20026;-79
2022/05/30 05:02:08;;;;;;;14.07;4.15;;;5.40;98.50;;;;;;6121328;23;20121;-80
2022/05/30 05:04:37;;;;;;;12.25;4.28;;;5.50;98.80;;;;;;6118817;23;20026;-79
2022/05/30 05:07:04;;;;;;;14.50;4.05;;;5.60;98.90;;;;;;6119972;23;20466;-79
2022/05/30 05:09:46;;;;;;;12.50;4.15;;;5.60;99.00;;;;;;6122008;23;20476;-79
2022/05/30 05:12:13;;;;;;;10.98;4.07;;;5.70;98.80;;;;;;6120145;23;20076;-79
2022/05/30 05:14:40;;;;;;;12.68;4.80;;;5.70;98.90;;;;;;6119345;23;20106;-78
2022/05/30 05:17:07;;;;;;;8.25;4.30;;;5.80;99.00;;;;;;6121896;23;20027;-80
2022/05/30 05:19:36;;;;;;;16.52;4.70;;;5.90;99.10;;;;;;6120342;23;20461;-80
2022/05/30 05:22:03;;;;;;;13.85;4.65;;;6.10;99.40;;;;;;6119691;23;20041;-79
2022/05/30 05:24:30;;;;;;;13.32;4.72;;;6.10;99.40;;;;;;6121654;23;20032;-79
2022/05/30 05:26:56;;;;;;;12.57;4.40;;;6.20;99.60;;;;;;6120810;23;20423;-79
2022/05/30 05:29:23;;;;;;;11.55;4.63;;;6.30;99.60;;;;;;6120870;23;20030;-79
2022/05/30 05:31:51;;;;;;;13.57;4.53;;;6.40;99.60;;;;;;6120772;23;20030;-79
2022/05/30 05:34:18;;;;;;;20.70;5.20;;;6.50;99.70;;;;;;6144188;23;20046;-79
2022/05/30 05:36:47;;;;;;;17.25;5.13;;;6.60;99.60;;;;;;6121864;23;20031;-79
2022/05/30 05:39:16;;;;;;;21.25;4.68;;;6.70;99.70;;;;;;6123171;23;20055;-79
2022/05/30 05:41:46;;;;;;;7.70;3.95;;;6.80;99.70;;;;;;6120399;23;20102;-80
2022/05/30 05:44:15;;;;;;;12.52;4.30;;;6.90;99.50;;;;;;6122251;23;20101;-80
2022/05/30 05:46:42;;;;;;;15.80;4.40;;;7.00;99.30;;;;;;6121220;23;20081;-79
2022/05/30 05:49:10;;;;;;;17.85;4.43;;;7.10;99.10;;;;;;6116220;23;20176;-79
2022/05/30 05:51:38;;;;;;;14.27;4.18;;;7.20;99.10;;;;;;6119959;23;20466;-80
2022/05/30 05:54:05;;;;;;;11.10;3.70;;;7.30;99.00;;;;;;6118671;23;20026;-80
2022/05/30 05:56:32;;;;;;;13.35;4.10;;;7.40;98.60;;;;;;6120160;23;20031;-79
2022/05/30 05:58:59;;;;;;;15.98;4.18;;;7.40;98.10;;;;;;6118920;23;20029;-80
2022/05/30 06:01:29;;;;;;;10.02;3.83;;;7.60;97.80;;;;;;6120411;23;20038;-80
2022/05/30 06:03:58;;;;;;;14.05;3.72;;;7.60;97.50;;;;;;6120184;23;20038;-81
2022/05/30 06:06:26;;;;;;;12.70;3.60;;;7.80;97.00;;;;;;6120561;23;20771;-79
2022/05/30 06:08:56;;;;;;;15.50;3.90;;;7.90;96.60;;;;;;6119351;23;20031;-80
2022/05/30 06:11:24;;;;;;;11.68;2.92;;;8.00;96.50;;;;;;6125988;23;20017;-80
2022/05/30 06:13:51;;;;;;;10.40;2.92;;;8.10;96.50;;;;;;6121825;23;20451;-80
2022/05/30 06:16:30;;;;;;;9.73;2.80;;;8.30;95.70;;;;;;6120604;23;20098;-79
2022/05/30 06:18:58;;;;;;;9.20;1.73;;;8.50;95.20;;;;;;6118034;23;20344;-80
2022/05/30 06:21:28;;;;;;;7.45;1.80;;;8.60;93.40;;;;;;6121702;23;20102;-80
2022/05/30 06:23:57;;;;;;;6.35;1.60;;;8.60;90.10;;;;;;6121043;23;20061;-79
2022/05/30 06:26:25;;;;;;;5.35;1.50;;;8.80;87.50;;;;;;6121108;23;20022;-80
2022/05/30 06:28:54;;;;;;;7.55;1.42;;;8.80;88.00;;;;;;6119303;23;20482;-80
2022/05/30 06:31:28;;;;;;;10.35;1.75;;;8.90;88.10;;;;;;6117247;23;20375;-79
2022/05/30 06:33:55;;;;;;;5.25;1.52;;;9.00;89.40;;;;;;6116704;23;20086;-80
2022/05/30 06:36:24;;;;;;;10.80;2.08;;;9.10;88.70;;;;;;6118990;23;20677;-80
2022/05/30 06:38:52;;;;;;;6.45;1.95;;;9.20;88.80;;;;;;6120047;23;20154;-79
2022/05/30 06:41:30;;;;;;;6.40;1.98;;;9.30;88.40;;;;;;6118552;23;20045;-80
2022/05/30 06:44:04;;;;;;;8.65;1.70;;;9.30;86.50;;;;;;6115453;23;20378;-80
2022/05/30 06:46:33;;;;;;;6.57;1.58;;;9.50;88.00;;;;;;6117872;23;20489;-80
2022/05/30 06:49:00;;;;;;;7.15;1.42;;;9.60;85.50;;;;;;6119419;23;20027;-80
2022/05/30 06:51:28;;;;;;;9.45;1.80;;;9.70;84.40;;;;;;6119811;23;20030;-80
2022/05/30 06:53:55;;;;;;;5.53;1.48;;;9.80;84.40;;;;;;6121340;23;20111;-80
2022/05/30 06:56:26;;;;;;;5.68;1.45;;;9.90;82.90;;;;;;6124785;23;20026;-80
2022/05/30 06:58:53;;;;;;;5.18;1.23;;;9.90;82.00;;;;;;6121878;23;20050;-80
2022/05/30 07:01:26;;;;;;;6.22;1.58;;;10.00;83.30;;;;;;6121271;23;20096;-80
2022/05/30 07:03:54;;;;;;;5.13;1.48;;;10.10;81.70;;;;;;6121905;23;20562;-80
2022/05/30 07:06:23;;;;;;;6.80;1.27;;;10.10;80.60;;;;;;6120583;23;20022;-80
2022/05/30 07:08:50;;;;;;;6.35;1.15;;;10.20;81.70;;;;;;6120263;23;20030;-80
2022/05/30 07:11:19;;;;;;;8.35;1.60;;;10.20;80.70;;;;;;6121768;23;20741;-80
2022/05/30 07:13:47;;;;;;;11.40;1.70;;;10.20;81.20;;;;;;6120376;23;20730;-80
2022/05/30 07:16:14;;;;;;;7.03;1.50;;;10.20;81.40;;;;;;6108057;23;20422;-80
2022/05/30 07:18:43;;;;;;;6.97;1.75;;;10.30;80.20;;;;;;6089952;23;20560;-80
2022/05/30 07:21:13;;;;;;;6.43;1.17;;;10.50;80.40;;;;;;6110851;23;20034;-80
2022/05/30 07:23:41;;;;;;;8.27;1.20;;;11.10;79.60;;;;;;6114813;23;20058;-80
2022/05/30 07:26:16;;;;;;;5.05;1.30;;;11.80;73.80;;;;;;6112259;23;20493;-81
2022/05/30 07:28:44;;;;;;;3.25;1.10;;;12.40;73.30;;;;;;6113868;23;20022;-80
2022/05/30 07:31:14;;;;;;;5.57;1.73;;;13.00;71.60;;;;;;6112141;23;20492;-80
2022/05/30 07:33:44;;;;;;;4.38;1.20;;;13.60;68.20;;;;;;6113995;23;20031;-80
2022/05/30 07:36:16;;;;;;;5.35;1.23;;;14.20;66.10;;;;;;6116101;23;20029;-81
2022/05/30 07:38:43;;;;;;;6.10;1.00;;;14.70;62.00;;;;;;6115023;23;20425;-80
2022/05/30 07:41:10;;;;;;;4.07;1.13;;;15.10;62.90;;;;;;6113613;23;20038;-79
2022/05/30 07:43:37;;;;;;;4.03;1.30;;;15.60;60.30;;;;;;6114666;23;20030;-80
2022/05/30 07:46:07;;;;;;;6.93;1.40;;;16.10;61.80;;;;;;6113652;23;20109;-78
2022/05/30 07:48:34;;;;;;;7.40;1.50;;;16.60;55.40;;;;;;6119152;23;20033;-78
2022/05/30 07:51:03;;;;;;;4.82;1.08;;;17.20;54.30;;;;;;6122444;23;20461;-78
2022/05/30 07:53:30;;;;;;;4.40;1.38;;;17.40;53.30;;;;;;6121334;23;20022;-78
2022/05/30 07:55:58;;;;;;;5.45;1.20;;;17.30;54.60;;;;;;6122558;23;20026;-78
2022/05/30 07:58:26;;;;;;;3.47;1.27;;;17.10;55.50;;;;;;6120621;23;20029;-80
2022/05/30 08:00:53;;;;;;;4.55;1.40;;;16.60;54.90;;;;;;6120656;23;20143;-78
2022/05/30 08:03:21;;;;;;;7.20;1.30;;;16.20;55.60;;;;;;6121231;23;20038;-77
2022/05/30 08:05:48;;;;;;;3.55;1.25;;;16.00;57.40;;;;;;6121131;23;20026;-78
2022/05/30 08:08:16;;;;;;;6.90;1.40;;;16.10;56.70;;;;;;6120070;23;20106;-77
2022/05/30 08:10:42;;;;;;;5.38;1.25;;;16.00;58.30;;;;;;6121779;23;20050;-78
2022/05/30 08:13:09;;;;;;;3.75;1.00;;;16.00;58.10;;;;;;6121384;23;20525;-77
2022/05/30 08:15:36;;;;;;;7.95;1.55;;;16.00;55.30;;;;;;6121450;23;20032;-80
2022/05/30 08:18:03;;;;;;;3.15;1.10;;;15.90;55.80;;;;;;6121388;23;20454;-80
2022/05/30 08:20:31;;;;;;;8.95;1.20;;;15.90;55.80;;;;;;6120130;23;20089;-80
2022/05/30 08:22:58;;;;;;;2.65;1.10;;;16.10;57.70;;;;;;6120114;23;20478;-80
2022/05/30 08:25:24;;;;;;;6.47;1.30;;;16.20;56.20;;;;;;6121433;23;20027;-80
2022/05/30 08:27:51;;;;;;;5.18;1.23;;;15.90;54.00;;;;;;6120014;23;20023;-80
2022/05/30 08:30:19;;;;;;;6.03;1.30;;;15.50;55.10;;;;;;6121613;23;20035;-80
2022/05/30 08:32:47;;;;;;;3.78;1.23;;;15.20;56.00;;;;;;6121023;23;20327;-79
2022/05/30 08:35:17;;;;;;;4.97;1.10;;;15.00;57.30;;;;;;6121101;23;20026;-80
2022/05/30 08:37:44;;;;;;;4.72;1.20;;;15.30;57.70;;;;;;6121727;23;20073;-80
2022/05/30 08:43:19;;;;;;;5.05;1.10;;;15.90;53.50;;;;;;6120674;23;20027;-80
2022/05/30 08:45:47;;;;;;;5.45;1.20;;;15.80;52.90;;;;;;6122034;23;20049;-80
2022/05/30 08:48:18;;;;;;;3.15;1.08;;;15.90;52.90;;;;;;6118482;23;20027;-80
2022/05/30 08:50:58;;;;;;;6.68;1.58;;;16.10;53.70;;;;;;6121371;23;20090;-80
2022/05/30 08:54:02;;;;;;;6.18;1.13;;;17.00;52.70;;;;;;6120992;23;20485;-78
2022/05/30 08:56:36;;;;;;;3.55;1.00;;;17.40;49.20;;;;;;6120974;23;20792;-78
2022/05/30 08:59:28;;;;;;;8.38;1.40;;;17.20;47.50;;;;;;6120632;23;20784;-78
2022/05/30 09:02:21;;;;;;;4.18;1.27;;;16.90;51.80;;;;;;6121772;23;20097;-80
2022/05/30 09:04:54;;;;;;;5.82;1.35;;;16.60;55.00;;;;;;6120176;23;20064;-80
2022/05/30 09:07:31;;;;;;;3.53;1.30;;;16.00;56.80;;;;;;6121988;23;20550;-80
2022/05/30 09:10:13;;;;;;;4.38;1.40;;;15.60;56.80;;;;;;6118606;23;20031;-80
2022/05/30 09:12:50;;;;;;;5.90;1.30;;;15.10;58.00;;;;;;6119541;23;20034;-80
2022/05/30 09:15:22;;;;;;;6.07;1.38;;;14.70;58.00;;;;;;6120465;23;20022;-80
2022/05/30 09:18:02;;;;;;;6.63;1.40;;;14.20;57.50;;;;;;6121034;23;20026;-81
2022/05/30 09:20:31;;;;;;;4.55;1.38;;;13.90;61.10;;;;;;6144681;23;20480;-80
2022/05/30 09:23:01;;;;;;;5.70;1.35;;;13.60;58.60;;;;;;6118599;23;20033;-80
2022/05/30 09:25:56;;;;;;;5.60;1.25;;;13.40;60.80;;;;;;6121217;23;20071;-80
2022/05/30 09:28:25;;;;;;;5.80;1.20;;;13.20;63.00;;;;;;6121306;23;20085;-80
2022/05/30 09:31:03;;;;;;;5.57;1.55;;;13.10;63.40;;;;;;6119416;23;20387;-80
2022/05/30 09:33:34;;;;;;;6.43;1.30;;;13.00;64.40;;;;;;6120151;23;20053;-80
2022/05/30 09:36:15;;;;;;;7.32;1.52;;;12.90;61.50;;;;;;6118567;23;20339;-80
2022/05/30 09:38:48;;;;;;;8.88;1.30;;;12.80;68.20;;;;;;6121662;23;20026;-80
2022/05/30 09:41:23;;;;;;;6.93;1.38;;;12.80;62.40;;;;;;6119982;23;20093;-80
2022/05/30 09:43:55;;;;;;;7.47;1.48;;;12.80;65.00;;;;;;6120906;23;20415;-80
2022/05/30 09:46:42;;;;;;;3.83;1.63;;;12.80;62.60;;;;;;6120590;23;20461;-80
2022/05/30 09:49:20;;;;;;;5.20;1.30;;;12.90;65.90;;;;;;6119234;23;20031;-80
2022/05/30 09:51:52;;;;;;;5.95;1.30;;;13.00;61.70;;;;;;6120771;23;20027;-80
2022/05/30 09:54:25;;;;;;;5.00;1.30;;;13.00;61.30;;;;;;6121648;23;20343;-79
2022/05/30 09:57:07;;;;;;;5.82;1.50;;;13.10;61.00;;;;;;6119173;23;20070;-80
2022/05/30 09:59:41;;;;;;;3.10;1.20;;;13.20;62.30;;;;;;6120378;23;20033;-80
2022/05/30 10:02:28;;;;;;;4.80;1.55;;;13.20;59.10;;;;;;6121127;23;20030;-80
2022/05/30 10:05:23;;;;;;;4.82;1.38;;;13.20;61.30;;;;;;6120307;23;20031;-79
2022/05/30 10:08:21;;;;;;;6.25;1.75;;;13.20;60.90;;;;;;6120070;23;20325;-80
2022/05/30 10:10:51;;;;;;;7.07;1.35;;;13.20;62.20;;;;;;6116912;23;20551;-80
2022/05/30 10:13:42;;;;;;;2.67;1.08;;;13.30;62.30;;;;;;6119214;23;20023;-80
2022/05/30 10:16:12;;;;;;;4.45;1.10;;;13.40;61.00;;;;;;6119094;23;20056;-81
2022/05/30 10:18:50;;;;;;;7.05;1.40;;;13.40;61.70;;;;;;6123029;23;20466;-80
2022/05/30 10:21:23;;;;;;;5.15;1.55;;;13.10;60.20;;;;;;6119086;23;20358;-79
2022/05/30 10:30:16;;;;;;;3.45;1.23;;;13.20;63.90;;;;;;6119300;23;20106;-80
2022/05/30 10:33:08;;;;;;;8.02;1.33;;;13.20;62.50;;;;;;6119519;23;20022;-80
2022/05/30 10:35:54;;;;;;;4.15;1.00;;;13.20;61.10;;;;;;6113073;23;20125;-80
2022/05/30 10:38:45;;;;;;;4.47;1.30;;;13.20;59.90;;;;;;6122481;23;20106;-80
2022/05/30 10:41:24;;;;;;;7.40;1.08;;;13.10;61.30;;;;;;6122609;23;20069;-80
2022/05/30 10:44:20;;;;;;;5.18;1.38;;;13.20;62.50;;;;;;6122494;23;20526;-80
2022/05/30 10:47:20;;;;;;;6.22;1.58;;;13.00;61.30;;;;;;6123732;23;20032;-81
2022/05/30 10:50:21;;;;;;;4.88;1.17;;;13.00;63.10;;;;;;6124261;23;20369;-80
2022/05/30 10:53:02;;;;;;;6.57;1.08;;;13.00;65.20;;;;;;6108900;23;20041;-80
2022/05/30 10:55:43;;;;;;;4.65;1.67;;;13.10;64.50;;;;;;6124876;23;20022;-80
2022/05/30 10:58:26;;;;;;;4.47;1.40;;;13.10;60.70;;;;;;6124155;23;20145;-79
2022/05/30 11:00:57;;;;;;;;;;;13.10;62.30;;;;;;6123268;23;20103;-80
2022/05/30 11:03:30;;;;;;;2.95;1.10;;;13.20;64.70;;;;;;6123751;23;19921;-80
2022/05/30 11:06:13;;;;;;;5.45;1.33;;;13.50;61.00;;;;;;6122237;23;20060;-79
2022/05/30 11:09:01;;;;;;;10.45;1.63;;;13.40;59.50;;;;;;6122355;23;20050;-80
2022/05/30 11:11:48;;;;;;;3.47;1.20;;;13.40;61.00;;;;;;6124424;23;20026;-80
2022/05/30 11:14:34;;;;;;;5.57;1.38;;;13.50;62.00;;;;;;6121753;23;20414;-80
2022/05/30 11:17:14;;;;;;;5.85;1.50;;;13.80;61.10;;;;;;6120636;23;20030;-80
2022/05/30 11:20:20;;;;;;;5.13;1.38;;;13.80;58.60;;;;;;6122236;23;20033;-79
2022/05/30 11:22:49;;;;;;;3.88;1.10;;;13.80;60.40;;;;;;6122653;23;20106;-80
2022/05/30 11:25:26;;;;;;;6.13;1.38;;;13.90;58.80;;;;;;6123896;23;20029;-80
2022/05/30 11:28:07;;;;;;;7.85;1.60;;;14.10;60.80;;;;;;6124544;23;20795;-80
2022/05/30 11:30:57;;;;;;;3.97;1.10;;;14.20;57.20;;;;;;6123096;23;20859;-80
2022/05/30 11:33:44;;;;;;;6.80;1.40;;;14.30;61.50;;;;;;6124163;23;20522;-81
2022/05/30 11:36:17;;;;;;;8.40;1.17;;;14.50;55.80;;;;;;6120329;23;20433;-80
2022/05/30 11:38:59;;;;;;;5.90;1.15;;;14.70;57.20;;;;;;6120138;23;20043;-81
2022/05/30 11:41:43;;;;;;;6.68;1.10;;;14.90;59.10;;;;;;6123720;23;20046;-80
2022/05/30 11:44:09;;;;;;;6.80;1.17;;;15.10;57.00;;;;;;6123671;23;20049;-80
2022/05/30 11:46:58;;;;;;;5.45;1.48;;;15.30;57.80;;;;;;6122458;23;20033;-81
2022/05/30 11:49:57;;;;;;;4.72;1.20;;;15.50;57.10;;;;;;6123940;23;20741;-80
2022/05/30 11:53:10;;;;;;;3.88;0.93;;;15.50;53.70;;;;;;6087902;23;20145;-80
2022/05/30 11:55:48;;;;;;;2.10;0.90;;;15.50;57.20;;;;;;6123621;23;20056;-81
2022/05/30 11:58:42;;;;;;;4.15;1.08;;;15.70;55.20;;;;;;6123813;23;20758;-80
2022/05/30 12:01:11;;;;;;;3.58;1.15;;;15.60;55.00;;;;;;6123775;23;20030;-79
2022/05/30 12:03:58;;;;;;;5.85;1.35;;;15.70;55.30;;;;;;6122173;23;20114;-80
2022/05/30 12:06:52;;;;;;;3.30;0.90;;;15.70;53.50;;;;;;6123818;23;20086;-80
2022/05/30 12:09:37;;;;;;;4.35;1.15;;;15.80;54.50;;;;;;6124102;23;20445;-80
2022/05/30 12:12:31;;;;;;;4.35;1.20;;;15.90;50.80;;;;;;6123576;23;20072;-80
2022/05/30 12:15:32;;;;;;;4.97;1.08;;;15.80;53.90;;;;;;6121900;23;20110;-81
2022/05/30 12:24:19;;;;;;;4.63;1.10;;;15.90;53.10;;;;;;6124034;23;20082;-80
2022/05/30 12:27:00;;;;;;;5.85;1.30;;;15.80;49.30;;;;;;6123457;23;20544;-81
2022/05/30 12:29:39;;;;;;;4.40;1.13;;;15.70;51.60;;;;;;6123631;23;20034;-79
2022/05/30 12:32:16;;;;;;;8.65;1.10;;;15.90;50.30;;;;;;6123867;23;20030;-80
2022/05/30 12:34:58;;;;;;;3.95;1.38;;;16.20;49.80;;;;;;6123322;23;20030;-80
2022/05/30 12:37:51;;;;;;;2.40;0.98;;;16.40;47.10;;;;;;6121957;23;20597;-80
2022/05/30 12:40:35;;;;;;;2.70;1.10;;;16.60;47.20;;;;;;6124298;23;20030;-80
2022/05/30 12:43:06;;;;;;;;;;;16.70;46.10;;;;;;6124518;23;20022;-80
2022/05/30 12:45:33;;;;;;;4.40;1.13;;;16.80;46.20;;;;;;6123814;23;19932;-81
2022/05/30 12:48:11;;;;;;;4.75;1.17;;;16.70;47.30;;;;;;6121811;23;20478;-80
2022/05/30 12:51:01;;;;;;;4.70;0.95;;;16.80;46.20;;;;;;6122303;23;20041;-80
2022/05/30 12:53:57;;;;;;;4.82;1.27;;;16.60;47.00;;;;;;6116056;23;20033;-79
2022/05/30 12:56:43;;;;;;;6.47;1.10;;;16.70;43.70;;;;;;6123091;23;20029;-79
2022/05/30 12:59:33;;;;;;;3.05;0.98;;;16.60;45.60;;;;;;6122121;23;20026;-79
2022/05/30 13:02:02;;;;;;;4.13;1.10;;;16.70;45.30;;;;;;6120964;23;20022;-80
2022/05/30 13:04:36;;;;;;;2.78;1.05;;;16.80;44.60;;;;;;6122641;23;20026;-80
2022/05/30 13:07:29;;;;;;;3.53;1.10;;;17.00;46.80;;;;;;6122657;23;20035;-79
2022/05/30 13:10:05;;;;;;;1.85;0.80;;;17.20;44.30;;;;;;6120254;23;20054;-80
2022/05/30 13:12:52;;;;;;;4.57;1.17;;;17.40;42.10;;;;;;6123480;23;20030;-80
2022/05/30 13:15:35;;;;;;;3.10;1.10;;;17.40;44.20;;;;;;6121772;23;20418;-79
2022/05/30 13:18:18;;;;;;;2.88;0.90;;;17.20;46.80;;;;;;6118862;23;20659;-80
2022/05/30 13:20:50;;;;;;;3.22;1.00;;;17.10;46.60;;;;;;6119943;23;20026;-79
2022/05/30 13:23:33;;;;;;;2.33;0.90;;;17.00;43.50;;;;;;6122122;23;20041;-80
2022/05/30 13:26:10;;;;;;;3.80;1.00;;;16.90;47.20;;;;;;6121507;23;20026;-80
2022/05/30 13:28:42;;;;;;;4.05;1.00;;;16.80;49.10;;;;;;6122722;23;20248;-79
2022/05/30 13:31:11;;;;;;;2.30;0.70;;;16.60;48.30;;;;;;6122198;23;20105;-80
2022/05/30 13:33:48;;;;;;;4.85;1.17;;;16.50;51.10;;;;;;6120164;23;20081;-79
2022/05/30 13:36:19;;;;;;;3.90;1.00;;;16.40;50.50;;;;;;6120118;23;20026;-80
2022/05/30 13:38:48;;;;;;;5.03;1.20;;;16.50;49.80;;;;;;6123273;23;20549;-79
2022/05/30 13:41:34;;;;;;;1.73;0.80;;;16.70;48.60;;;;;;6122261;23;20085;-80
2022/05/30 13:44:26;;;;;;;4.53;1.20;;;16.80;48.60;;;;;;6121966;23;20057;-80